Terminal Aerodrome Forecast
Issued by NWS Twin Cities, MN

Home | Current Version | Previous Version | Text Only | Print | Product List | Glossary On
Versions: 1 2 3 4 5 6 7 8 9 10 11 12 13 14
000
FTUS43 KMPX 140520
TAFEAU
TAF
KEAU 140520Z 1406/1506 16006KT P6SM VCSH OVC100
     FM140900 VRB03KT P6SM SHRA VCTS SCT020 BKN040CB
      TEMPO 1409/1413 4SM SHRA BKN020
     FM141500 14006KT P6SM VCSH OVC007
     FM141800 14006KT P6SM VCSH OVC015
     FM150000 05004KT P6SM OVC025=

USA.gov is the U.S. government's official web portal to all federal, state and local government web resources and services.